Jefferson, NC

4:32 AM EST on February 11, 2016 (GMT -0500)
Ashe County

Weather History for KGEV - January, 2011

Change the Weather History Date:

Sunday, January 9, 2011

  Actual Average Record
Temperature  
Mean Temperature 15 °F -  
Max Temperature 24 °F 42 °F 60 °F (1975)
Min Temperature 6 °F 20 °F -8 °F (1970)
Degree Days  
Heating Degree Days 50    
Moisture  
Dew Point -2 °F    
Average Humidity 51    
Maximum Humidity 72    
Minimum Humidity 28    
Precipitation  
Precipitation 0.00 in - - ()
Sea Level Pressure  
Sea Level Pressure 30.03 in    
Wind  
Wind Speed 9 mph (NW)    
Max Wind Speed 16 mph    
Max Gust Speed 33 mph    
Visibility 10 miles    
Events      
Averages and records for this station are not official NWS values.
T = Trace of Precipitation, MM = Missing Value Source: NWS Daily Summary

Daily Weather History Graph

Daily Weather History Graph

Search for Another Location

Airport or City:

Trip Planner

Search our weather history database for the weather conditions in past years. The results will help you decide how hot, cold, wet, or windy it might be!

Date:

Astronomy

Jan. 09, 2011 Rise Set
Actual Time 7:37 AM EST 5:27 PM EST
Civil Twilight 7:09 AM EST 5:56 PM EST
Nautical Twilight 6:37 AM EST 6:28 PM EST
Astronomical Twilight 6:06 AM EST 6:59 PM EST
Moon 10:18 AM EST (1/9) 10:45 PM EST (1/9)
Length of Visible Light 10h 46m
Length of Day
9h 50m
Waxing Crescent, 25% of the Moon is Illuminated
Jan 9
Waxing Crescent
Jan 12
First Quarter
Jan 19
Full
Jan 26
Last Quarter
Feb 2
New

Hourly Weather History & Observations

Time (EST) Temp. Windchill Dew Point Humidity Pressure Visibility Wind Dir Wind Speed Gust Speed Precip Events Conditions
12:02 AM 6.8 °F -10.7 °F -0.4 °F 72% 29.76 in 10.0 mi NW 15.0 mph 33.4 mph N/A   Clear
12:22 AM 6.8 °F -11.3 °F -0.4 °F 72% 29.76 in 10.0 mi NW 16.1 mph 28.8 mph N/A   Clear
12:42 AM 6.8 °F -10.7 °F -0.4 °F 72% 29.77 in 10.0 mi NW 15.0 mph 33.4 mph N/A   Clear
1:02 AM 6.8 °F -9.3 °F -0.4 °F 72% 29.77 in 10.0 mi NW 12.7 mph 25.3 mph N/A   Clear
2:03 AM 6.8 °F -8.6 °F -2.2 °F 67% 29.82 in 10.0 mi WNW 11.5 mph 21.9 mph N/A   Clear
2:22 AM 6.8 °F -10.0 °F -2.2 °F 67% 29.83 in 10.0 mi WNW 13.8 mph 20.7 mph N/A   Clear
2:43 AM 6.8 °F -7.8 °F -2.2 °F 67% 29.84 in 10.0 mi NW 10.4 mph 19.6 mph N/A   Clear
3:02 AM 6.8 °F -10.7 °F -2.2 °F 67% 29.85 in 10.0 mi NW 15.0 mph 24.2 mph N/A   Clear
3:22 AM 6.8 °F -9.3 °F -2.2 °F 67% 29.86 in 10.0 mi NW 12.7 mph 18.4 mph N/A   Clear
3:44 AM 6.8 °F -0.1 °F -2.2 °F 67% 29.88 in 10.0 mi NW 3.5 mph 19.6 mph N/A   Clear
4:04 AM 6.8 °F - -2.2 °F 67% 29.89 in 10.0 mi Calm Calm - N/A   Clear
4:22 AM 6.8 °F -3.5 °F -2.2 °F 67% 29.89 in 10.0 mi NW 5.8 mph - N/A   Clear
4:42 AM 6.8 °F -4.8 °F -2.2 °F 67% 29.90 in 10.0 mi West 6.9 mph - N/A   Clear
5:03 AM 6.8 °F -4.8 °F -2.2 °F 67% 29.91 in 10.0 mi NNW 6.9 mph - N/A   Clear
5:24 AM 6.8 °F - -2.2 °F 67% 29.93 in 10.0 mi Calm Calm - N/A   Clear
5:43 AM 6.8 °F -2.0 °F -4.0 °F 61% 29.93 in 10.0 mi NNW 4.6 mph 9.2 mph N/A   Clear
6:02 AM 6.8 °F -6.9 °F -4.0 °F 61% 29.93 in 10.0 mi NW 9.2 mph 21.9 mph N/A   Clear
6:23 AM 6.8 °F -4.8 °F -2.2 °F 67% 29.94 in 10.0 mi NW 6.9 mph 20.7 mph N/A   Clear
6:42 AM 6.8 °F - -2.2 °F 67% 29.95 in 10.0 mi Calm Calm - N/A   Clear
7:02 AM 6.8 °F -3.5 °F -2.2 °F 67% 29.95 in 10.0 mi NW 5.8 mph - N/A   Clear
7:23 AM 6.8 °F -2.0 °F -2.2 °F 67% 29.96 in 10.0 mi SSW 4.6 mph - N/A   Clear
7:43 AM 6.8 °F -4.8 °F -4.0 °F 61% 29.97 in 10.0 mi NNW 6.9 mph - N/A   Clear
8:02 AM 6.8 °F -2.0 °F -4.0 °F 61% 30.00 in 10.0 mi NW 4.6 mph - N/A   Clear
8:22 AM 8.6 °F -1.3 °F -2.2 °F 62% 30.02 in 10.0 mi WNW 5.8 mph - N/A   Clear
8:42 AM 10.4 °F -1.5 °F -2.2 °F 57% 30.02 in 10.0 mi NW 8.1 mph - N/A   Clear
9:22 AM 10.4 °F -1.5 °F -2.2 °F 57% 30.06 in 10.0 mi WNW 8.1 mph - N/A   Clear
9:42 AM 12.2 °F -1.0 °F -0.4 °F 57% 30.07 in 10.0 mi WNW 10.4 mph - N/A   Clear
10:02 AM 14.0 °F 5.1 °F -0.4 °F 53% 30.09 in 10.0 mi WNW 5.8 mph - N/A   Clear
10:22 AM 14.0 °F 3.9 °F -0.4 °F 53% 30.11 in 10.0 mi West 6.9 mph - N/A   Clear
10:42 AM 15.8 °F 7.2 °F -0.4 °F 49% 30.10 in 10.0 mi NW 5.8 mph - N/A   Clear
11:03 AM 15.8 °F 5.1 °F -0.4 °F 49% 30.11 in 10.0 mi NW 8.1 mph - N/A   Clear
11:23 AM 17.6 °F 6.4 °F -0.4 °F 45% 30.10 in 10.0 mi NW 9.2 mph - N/A   Clear
11:43 AM 17.6 °F 5.7 °F -2.2 °F 42% 30.09 in 10.0 mi NW 10.4 mph 16.1 mph N/A   Clear
12:22 PM 19.4 °F 9.5 °F -0.4 °F 42% 30.08 in 10.0 mi NW 8.1 mph - N/A   Clear
12:43 PM 19.4 °F 8.6 °F 1.4 °F 46% 30.06 in 10.0 mi NNW 9.2 mph 17.3 mph N/A   Clear
1:03 PM 21.2 °F 10.9 °F 1.4 °F 42% 30.06 in 10.0 mi NNW 9.2 mph 16.1 mph N/A   Clear
1:23 PM 21.2 °F 10.1 °F -0.4 °F 39% 30.05 in 10.0 mi NNW 10.4 mph 17.3 mph N/A   Clear
1:43 PM 23.0 °F 13.1 °F -0.4 °F 36% 30.07 in 10.0 mi NW 9.2 mph - N/A   Clear
2:03 PM 23.0 °F 13.9 °F -0.4 °F 36% 30.08 in 10.0 mi WNW 8.1 mph - N/A   Clear
2:23 PM 24.8 °F 17.9 °F -0.4 °F 34% 30.08 in 10.0 mi NW 5.8 mph - N/A   Clear
2:42 PM 24.8 °F 16.9 °F -2.2 °F 31% 30.09 in 10.0 mi NNW 6.9 mph - N/A   Clear
3:02 PM 24.8 °F 19.1 °F -2.2 °F 31% 30.11 in 10.0 mi NW 4.6 mph - N/A   Clear
3:23 PM 24.8 °F 19.1 °F -4.0 °F 28% 30.11 in 10.0 mi NNW 4.6 mph - N/A   Clear
3:42 PM 24.8 °F 20.5 °F -4.0 °F 28% 30.12 in 10.0 mi NNW 3.5 mph - N/A   Clear
4:02 PM 24.8 °F 17.9 °F -4.0 °F 28% 30.12 in 10.0 mi NNW 5.8 mph - N/A   Clear
4:23 PM 24.8 °F 17.9 °F -4.0 °F 28% 30.12 in 10.0 mi NW 5.8 mph - N/A   Clear
4:42 PM 23.0 °F 17.0 °F -2.2 °F 33% 30.12 in 10.0 mi NNW 4.6 mph - N/A   Clear
5:02 PM 23.0 °F 17.0 °F -2.2 °F 33% 30.13 in 10.0 mi NNE 4.6 mph - N/A   Clear
5:22 PM 21.2 °F 14.9 °F -0.4 °F 39% 30.13 in 10.0 mi ENE 4.6 mph - N/A   Clear
5:42 PM 19.4 °F 12.8 °F -0.4 °F 42% 30.14 in 10.0 mi ENE 4.6 mph - N/A   Clear
6:02 PM 19.4 °F 14.3 °F -2.2 °F 39% 30.14 in 10.0 mi NE 3.5 mph - N/A   Clear
6:24 PM 17.6 °F 10.7 °F -0.4 °F 45% 30.14 in 10.0 mi North 4.6 mph - N/A   Clear
6:42 PM 17.6 °F - -0.4 °F 45% 30.16 in 10.0 mi Calm Calm - N/A   Clear
7:02 PM 17.6 °F 10.7 °F -2.2 °F 42% 30.17 in 10.0 mi NNW 4.6 mph - N/A   Clear
7:22 PM 17.6 °F 12.3 °F -0.4 °F 45% 30.17 in 10.0 mi North 3.5 mph - N/A   Clear
7:42 PM 17.6 °F 9.3 °F -0.4 °F 45% 30.17 in 10.0 mi North 5.8 mph - N/A   Clear
8:02 PM 17.6 °F 9.3 °F -0.4 °F 45% 30.17 in 10.0 mi NNW 5.8 mph - N/A   Clear
8:23 PM 17.6 °F 10.7 °F -0.4 °F 45% 30.18 in 10.0 mi NNE 4.6 mph - N/A   Clear
9:02 PM 17.6 °F - -0.4 °F 45% 30.20 in 10.0 mi Calm Calm - N/A   Clear
9:24 PM 17.6 °F 12.3 °F -2.2 °F 42% 30.20 in 10.0 mi NNW 3.5 mph - N/A   Clear
9:43 PM 17.6 °F 10.7 °F -2.2 °F 42% 30.20 in 10.0 mi NNW 4.6 mph - N/A   Clear
10:02 PM 17.6 °F 12.3 °F -2.2 °F 42% 30.20 in 10.0 mi NNW 3.5 mph - N/A   Clear
10:22 PM 17.6 °F - -2.2 °F 42% 30.18 in 10.0 mi Calm Calm - N/A   Clear
10:42 PM 17.6 °F - -0.4 °F 45% 30.20 in 10.0 mi Calm Calm - N/A   Clear
11:22 PM 17.6 °F - 1.4 °F 49% 30.19 in 10.0 mi Calm Calm - N/A   Clear
11:42 PM 17.6 °F - 1.4 °F 49% 30.18 in 10.0 mi Calm Calm - N/A   Clear